Time;durP1;ratioP1;P1;durP2;ratioP2;P2;SDS_P1;SDS_P2;PMS_P1;PMS_P2;Temp;Humidity;BMP_temperature;BMP_pressure;BME280_temperature;BME280_humidity;BME280_pressure;Samples;Min_cycle;Max_cycle;Signal;HPM_P1;HPM_P2
2024/04/05 00:02:05;;;;;;;0.33;0.33;;;;;;;;;;5048214;28;20245;-76
2024/04/05 00:04:31;;;;;;;0.30;0.30;;;;;;;;;;5040352;28;20215;-77
2024/04/05 00:06:56;;;;;;;0.43;0.43;;;;;;;;;;5048262;28;20220;-77
2024/04/05 00:09:23;;;;;;;0.40;0.40;;;;;;;;;;5057736;28;20221;-76
2024/04/05 00:11:48;;;;;;;0.30;0.30;;;;;;;;;;5048829;28;20227;-76
2024/04/05 00:14:14;;;;;;;1.80;1.53;;;;;;;;;;5057240;28;21070;-76
2024/04/05 00:16:39;;;;;;;0.37;0.37;;;;;;;;;;5042148;28;20214;-76
2024/04/05 00:19:05;;;;;;;0.40;0.40;;;;;;;;;;5058200;28;20227;-77
2024/04/05 00:21:30;;;;;;;0.40;0.40;;;;;;;;;;5056455;28;20231;-75
2024/04/05 00:24:00;;;;;;;0.30;0.30;;;;;;;;;;5056449;28;20223;-76
2024/04/05 00:26:26;;;;;;;0.30;0.30;;;;;;;;;;5056920;28;20211;-76
2024/04/05 00:28:52;;;;;;;0.30;0.30;;;;;;;;;;5056677;28;20585;-76
2024/04/05 00:31:17;;;;;;;0.30;0.30;;;;;;;;;;5040855;28;20226;-76
2024/04/05 00:33:42;;;;;;;0.30;0.30;;;;;;;;;;5042890;28;20219;-76
2024/04/05 00:36:11;;;;;;;0.40;0.40;;;;;;;;;;5046954;28;20231;-76
2024/04/05 00:38:37;;;;;;;0.40;0.40;;;;;;;;;;5040931;28;20218;-76
2024/04/05 00:41:03;;;;;;;0.30;0.30;;;;;;;;;;5041159;28;20230;-76
2024/04/05 00:43:28;;;;;;;0.30;0.30;;;;;;;;;;5054805;28;20219;-75
2024/04/05 00:45:57;;;;;;;1.00;0.93;;;;;;;;;;5057164;28;20229;-76
2024/04/05 00:48:23;;;;;;;0.30;0.30;;;;;;;;;;5057873;28;20346;-76
2024/04/05 00:50:51;;;;;;;0.30;0.30;;;;;;;;;;5059229;28;20235;-76
2024/04/05 00:53:20;;;;;;;0.30;0.30;;;;;;;;;;5060396;28;20211;-76
2024/04/05 00:55:47;;;;;;;0.50;0.50;;;;;;;;;;5060664;28;20727;-78
2024/04/05 00:58:15;;;;;;;0.30;0.30;;;;;;;;;;5061434;28;20222;-76
2024/04/05 01:00:40;;;;;;;0.30;0.30;;;;;;;;;;5060466;28;20226;-76
2024/04/05 01:03:06;;;;;;;0.30;0.30;;;;;;;;;;5050820;28;20276;-76
2024/04/05 01:05:33;;;;;;;0.40;0.40;;;;;;;;;;5044328;28;20284;-76
2024/04/05 01:07:59;;;;;;;0.40;0.40;;;;;;;;;;5042428;28;20231;-77
2024/04/05 01:10:25;;;;;;;0.30;0.30;;;;;;;;;;5044174;28;20226;-76
2024/04/05 01:13:17;;;;;;;1.17;1.00;;;;;;;;;;5051714;28;20607;-76
2024/04/05 01:15:42;;;;;;;0.30;0.30;;;;;;;;;;5058790;28;20226;-76
2024/04/05 01:18:10;;;;;;;0.37;0.37;;;;;;;;;;5043977;28;20223;-76
2024/04/05 01:20:36;;;;;;;0.23;0.23;;;;;;;;;;5057080;28;20704;-76
2024/04/05 01:23:06;;;;;;;0.47;0.47;;;;;;;;;;5047480;28;20230;-76
2024/04/05 01:25:33;;;;;;;0.40;0.40;;;;;;;;;;5056868;28;20233;-76
2024/04/05 01:28:00;;;;;;;0.30;0.30;;;;;;;;;;5063327;28;20222;-76
2024/04/05 01:30:26;;;;;;;0.40;0.40;;;;;;;;;;5059609;28;20227;-76
2024/04/05 01:32:59;;;;;;;0.90;0.90;;;;;;;;;;5054922;28;20272;-76
2024/04/05 01:35:26;;;;;;;0.30;0.30;;;;;;;;;;5055705;28;20233;-76
2024/04/05 01:37:52;;;;;;;0.30;0.30;;;;;;;;;;5045940;28;20227;-76
2024/04/05 01:40:17;;;;;;;0.30;0.30;;;;;;;;;;5056710;28;20645;-77
2024/04/05 01:42:49;;;;;;;0.30;0.30;;;;;;;;;;5041015;28;20227;-76
2024/04/05 01:45:15;;;;;;;0.40;0.40;;;;;;;;;;5050666;28;20227;-76
2024/04/05 01:47:40;;;;;;;0.30;0.30;;;;;;;;;;5049343;28;20325;-76
2024/04/05 01:50:06;;;;;;;0.30;0.30;;;;;;;;;;5039874;28;20235;-76
2024/04/05 01:52:32;;;;;;;0.30;0.30;;;;;;;;;;5058768;28;20638;-78
2024/04/05 01:54:58;;;;;;;0.30;0.30;;;;;;;;;;5045523;28;20222;-76
2024/04/05 01:57:24;;;;;;;0.30;0.30;;;;;;;;;;5061208;28;20219;-76
2024/04/05 01:59:52;;;;;;;0.30;0.30;;;;;;;;;;5045630;28;20245;-76
2024/04/05 02:02:19;;;;;;;0.30;0.30;;;;;;;;;;5060048;28;20236;-76
2024/04/05 02:04:44;;;;;;;0.30;0.30;;;;;;;;;;5045033;28;20435;-76
2024/04/05 02:07:10;;;;;;;3.37;1.67;;;;;;;;;;5045653;28;20723;-76
2024/04/05 02:09:35;;;;;;;0.40;0.40;;;;;;;;;;5051468;28;20223;-76
2024/04/05 02:12:01;;;;;;;0.30;0.30;;;;;;;;;;5044617;28;20227;-76
2024/04/05 02:14:27;;;;;;;0.30;0.30;;;;;;;;;;5050024;28;20223;-76
2024/04/05 02:16:57;;;;;;;0.33;0.33;;;;;;;;;;5060525;28;20585;-76
2024/04/05 02:19:23;;;;;;;0.30;0.30;;;;;;;;;;5058317;28;20274;-76
2024/04/05 02:21:49;;;;;;;0.30;0.30;;;;;;;;;;5059575;28;20223;-76
2024/04/05 02:24:15;;;;;;;0.60;0.60;;;;;;;;;;5043832;28;20231;-76
2024/04/05 02:26:40;;;;;;;0.40;0.40;;;;;;;;;;5064198;28;20711;-76
2024/04/05 02:29:06;;;;;;;0.30;0.30;;;;;;;;;;5041017;28;20234;-76
2024/04/05 02:31:32;;;;;;;0.30;0.30;;;;;;;;;;5050713;28;20230;-76
2024/04/05 02:33:58;;;;;;;0.30;0.30;;;;;;;;;;5051470;28;20223;-76
2024/04/05 02:36:23;;;;;;;0.40;0.40;;;;;;;;;;5057074;28;20607;-77
2024/04/05 02:38:49;;;;;;;0.30;0.30;;;;;;;;;;5062985;28;20223;-76
2024/04/05 02:41:14;;;;;;;0.30;0.30;;;;;;;;;;5072095;28;20257;-76
2024/04/05 02:43:40;;;;;;;0.20;0.20;;;;;;;;;;5050652;28;20305;-77
2024/04/05 02:46:05;;;;;;;0.30;0.30;;;;;;;;;;5064605;28;20284;-76
2024/04/05 02:48:31;;;;;;;0.33;0.33;;;;;;;;;;5058151;28;20225;-76
2024/04/05 02:50:57;;;;;;;0.33;0.33;;;;;;;;;;5065609;28;20230;-76
2024/04/05 02:53:24;;;;;;;0.40;0.40;;;;;;;;;;5047433;28;20237;-76
2024/04/05 02:55:52;;;;;;;0.30;0.30;;;;;;;;;;5062912;28;20226;-75
2024/04/05 02:58:17;;;;;;;0.20;0.20;;;;;;;;;;5049673;28;20238;-76
2024/04/05 03:00:45;;;;;;;0.30;0.30;;;;;;;;;;5074607;28;20238;-77
2024/04/05 03:03:35;;;;;;;0.30;0.30;;;;;;;;;;5081733;28;20241;-76
2024/04/05 03:06:00;;;;;;;0.30;0.30;;;;;;;;;;5045785;28;20695;-76
2024/04/05 03:08:26;;;;;;;0.30;0.30;;;;;;;;;;5068128;28;20515;-76
2024/04/05 03:10:51;;;;;;;0.40;0.40;;;;;;;;;;5057699;28;20229;-77
2024/04/05 03:13:17;;;;;;;0.30;0.30;;;;;;;;;;5065158;28;20231;-76
2024/04/05 03:15:46;;;;;;;0.30;0.30;;;;;;;;;;5058434;28;20234;-76
2024/04/05 03:18:14;;;;;;;0.30;0.30;;;;;;;;;;5056810;28;20223;-76
2024/04/05 03:20:42;;;;;;;0.30;0.30;;;;;;;;;;5065740;28;20273;-76
2024/04/05 03:23:07;;;;;;;0.30;0.30;;;;;;;;;;5050561;28;20230;-76
2024/04/05 03:25:33;;;;;;;0.90;0.90;;;;;;;;;;5041575;28;20292;-76
2024/04/05 03:27:59;;;;;;;0.40;0.40;;;;;;;;;;5057086;28;20265;-76
2024/04/05 03:30:25;;;;;;;0.33;0.33;;;;;;;;;;5056824;28;20273;-78
2024/04/05 03:32:50;;;;;;;0.30;0.30;;;;;;;;;;5058444;28;20224;-76
2024/04/05 03:35:40;;;;;;;0.40;0.40;;;;;;;;;;5056773;28;20281;-75
2024/04/05 03:38:06;;;;;;;0.30;0.30;;;;;;;;;;5056356;28;20251;-76
2024/04/05 03:40:32;;;;;;;0.30;0.30;;;;;;;;;;5057969;28;20614;-77
2024/04/05 03:42:57;;;;;;;0.30;0.30;;;;;;;;;;5049550;28;20219;-76
2024/04/05 03:45:23;;;;;;;0.30;0.30;;;;;;;;;;5057995;28;20589;-77
2024/04/05 03:47:48;;;;;;;0.30;0.30;;;;;;;;;;5056355;28;20273;-76
2024/04/05 03:50:14;;;;;;;0.30;0.30;;;;;;;;;;5065318;28;20866;-76
2024/04/05 03:52:40;;;;;;;0.30;0.30;;;;;;;;;;5056361;28;20220;-76
2024/04/05 03:55:06;;;;;;;0.30;0.30;;;;;;;;;;5057043;28;20231;-76
2024/04/05 03:57:32;;;;;;;0.30;0.30;;;;;;;;;;5057498;28;20253;-77
2024/04/05 03:59:59;;;;;;;0.30;0.30;;;;;;;;;;5065010;28;20234;-76
2024/04/05 04:02:25;;;;;;;0.30;0.30;;;;;;;;;;5057058;28;20645;-76
2024/04/05 04:04:51;;;;;;;0.30;0.30;;;;;;;;;;5048976;28;20230;-76
2024/04/05 04:07:17;;;;;;;0.30;0.30;;;;;;;;;;5041375;28;20227;-75
2024/04/05 04:09:45;;;;;;;0.30;0.30;;;;;;;;;;5057058;28;20219;-78
2024/04/05 04:12:10;;;;;;;0.30;0.30;;;;;;;;;;5046574;28;20227;-78
2024/04/05 04:15:01;;;;;;;0.30;0.30;;;;;;;;;;5057925;28;20296;-76
2024/04/05 04:17:30;;;;;;;0.30;0.30;;;;;;;;;;5070768;28;20231;-76
2024/04/05 04:19:59;;;;;;;0.30;0.30;;;;;;;;;;5042435;28;20640;-77
2024/04/05 04:22:24;;;;;;;0.30;0.30;;;;;;;;;;5047018;28;20451;-76
2024/04/05 04:24:50;;;;;;;0.30;0.30;;;;;;;;;;5055308;28;20761;-77
2024/04/05 04:27:17;;;;;;;0.30;0.30;;;;;;;;;;5048928;28;20257;-76
2024/04/05 04:29:43;;;;;;;0.43;0.43;;;;;;;;;;5047724;28;20233;-76
2024/04/05 04:32:08;;;;;;;0.30;0.30;;;;;;;;;;5049111;28;20227;-76
2024/04/05 04:34:34;;;;;;;0.30;0.30;;;;;;;;;;5064705;28;20250;-76
2024/04/05 04:37:00;;;;;;;0.30;0.30;;;;;;;;;;5063578;28;20227;-76
2024/04/05 04:39:25;;;;;;;0.30;0.30;;;;;;;;;;5063271;28;20588;-76
2024/04/05 04:41:51;;;;;;;0.30;0.30;;;;;;;;;;5063114;28;20258;-76
2024/04/05 04:44:16;;;;;;;0.30;0.30;;;;;;;;;;5064332;28;20787;-76
2024/04/05 04:46:42;;;;;;;0.30;0.30;;;;;;;;;;5047424;28;20219;-76
2024/04/05 04:49:08;;;;;;;0.30;0.30;;;;;;;;;;5061683;28;20230;-76
2024/04/05 04:51:34;;;;;;;0.23;0.23;;;;;;;;;;5063580;28;20223;-76
2024/04/05 04:54:00;;;;;;;0.30;0.30;;;;;;;;;;5054482;28;20222;-76
2024/04/05 04:56:30;;;;;;;0.30;0.30;;;;;;;;;;5062356;28;20778;-76
2024/04/05 04:58:56;;;;;;;0.30;0.30;;;;;;;;;;5047847;28;20222;-76
2024/04/05 05:01:22;;;;;;;0.30;0.30;;;;;;;;;;5054719;28;20239;-76
2024/04/05 05:03:47;;;;;;;0.30;0.30;;;;;;;;;;5047713;28;20223;-76
2024/04/05 05:06:13;;;;;;;0.30;0.30;;;;;;;;;;5062559;28;20223;-76
2024/04/05 05:08:39;;;;;;;0.30;0.30;;;;;;;;;;5055246;28;20319;-76
2024/04/05 05:11:05;;;;;;;0.30;0.30;;;;;;;;;;5047463;28;20247;-76
2024/04/05 05:13:32;;;;;;;0.27;0.27;;;;;;;;;;5079444;28;20525;-76
2024/04/05 05:15:57;;;;;;;0.30;0.30;;;;;;;;;;5047507;28;20306;-76
2024/04/05 05:18:23;;;;;;;0.30;0.30;;;;;;;;;;5047308;28;20246;-76
2024/04/05 05:20:51;;;;;;;0.20;0.20;;;;;;;;;;5047744;28;20237;-77
2024/04/05 05:23:17;;;;;;;0.30;0.30;;;;;;;;;;5049504;28;20227;-76
2024/04/05 05:25:44;;;;;;;0.30;0.30;;;;;;;;;;5046372;28;20272;-75
2024/04/05 05:28:11;;;;;;;0.50;0.50;;;;;;;;;;5069882;28;20227;-77
2024/04/05 05:30:37;;;;;;;0.20;0.20;;;;;;;;;;5063055;28;20219;-75
2024/04/05 05:33:07;;;;;;;0.30;0.30;;;;;;;;;;5079747;28;20231;-76
2024/04/05 05:35:33;;;;;;;0.30;0.30;;;;;;;;;;5060146;28;20241;-75
2024/04/05 05:38:04;;;;;;;0.30;0.30;;;;;;;;;;5060578;28;20231;-76
2024/04/05 05:40:30;;;;;;;0.30;0.30;;;;;;;;;;5058863;28;20250;-75
2024/04/05 05:42:56;;;;;;;0.30;0.30;;;;;;;;;;5059766;28;20231;-77
2024/04/05 05:45:22;;;;;;;0.40;0.40;;;;;;;;;;5060853;28;20277;-77
2024/04/05 05:47:52;;;;;;;0.30;0.30;;;;;;;;;;5042857;28;20225;-76
2024/04/05 05:50:19;;;;;;;0.30;0.30;;;;;;;;;;5068567;28;20227;-76
2024/04/05 05:52:44;;;;;;;0.30;0.30;;;;;;;;;;5044378;28;20294;-76
2024/04/05 05:55:10;;;;;;;0.20;0.20;;;;;;;;;;5060684;28;20697;-76
2024/04/05 05:57:37;;;;;;;0.30;0.30;;;;;;;;;;5045350;28;20229;-76
2024/04/05 06:00:05;;;;;;;0.30;0.30;;;;;;;;;;5058830;28;20227;-77
2024/04/05 06:02:30;;;;;;;0.30;0.30;;;;;;;;;;5048630;28;20234;-76
2024/04/05 06:04:56;;;;;;;0.30;0.30;;;;;;;;;;5059163;28;20227;-75
2024/04/05 06:07:22;;;;;;;0.20;0.20;;;;;;;;;;5052129;28;20306;-76
2024/04/05 06:09:49;;;;;;;0.30;0.30;;;;;;;;;;5058362;28;20227;-76
2024/04/05 06:12:14;;;;;;;0.37;0.37;;;;;;;;;;5060494;28;20231;-76
2024/04/05 06:14:42;;;;;;;0.30;0.30;;;;;;;;;;5060733;28;20234;-76
2024/04/05 06:17:11;;;;;;;0.37;0.37;;;;;;;;;;5058808;28;20227;-76
2024/04/05 06:19:38;;;;;;;0.30;0.30;;;;;;;;;;5050294;28;20577;-76
2024/04/05 06:22:04;;;;;;;0.30;0.30;;;;;;;;;;5044046;28;20231;-76
2024/04/05 06:24:33;;;;;;;0.30;0.30;;;;;;;;;;5067044;28;20231;-76
2024/04/05 06:26:59;;;;;;;0.30;0.30;;;;;;;;;;5043097;28;20235;-76
2024/04/05 06:29:25;;;;;;;0.40;0.40;;;;;;;;;;5042778;28;20239;-76
2024/04/05 06:31:51;;;;;;;0.70;0.70;;;;;;;;;;5058287;28;20255;-76
2024/04/05 06:34:16;;;;;;;0.30;0.30;;;;;;;;;;5042425;28;20811;-76
2024/04/05 06:36:42;;;;;;;0.30;0.30;;;;;;;;;;5042278;28;20650;-76
2024/04/05 06:39:07;;;;;;;0.50;0.50;;;;;;;;;;5057193;28;20235;-76
2024/04/05 06:41:33;;;;;;;0.30;0.30;;;;;;;;;;5058505;28;20227;-76
2024/04/05 06:44:01;;;;;;;0.30;0.30;;;;;;;;;;5065591;28;20227;-76
2024/04/05 06:46:52;;;;;;;0.30;0.30;;;;;;;;;;5060743;28;20273;-76
2024/04/05 06:49:18;;;;;;;0.40;0.40;;;;;;;;;;5042718;28;20321;-76
2024/04/05 06:51:44;;;;;;;0.40;0.40;;;;;;;;;;5065970;28;20688;-76
2024/04/05 06:54:10;;;;;;;0.30;0.30;;;;;;;;;;5058616;28;20215;-76
2024/04/05 06:56:39;;;;;;;0.40;0.40;;;;;;;;;;5059196;28;20751;-76
2024/04/05 06:59:04;;;;;;;0.30;0.30;;;;;;;;;;5059489;28;20223;-76
2024/04/05 07:01:30;;;;;;;0.90;0.90;;;;;;;;;;5042501;28;20227;-76
2024/04/05 07:03:55;;;;;;;0.30;0.30;;;;;;;;;;5042541;28;20245;-76
2024/04/05 07:06:21;;;;;;;0.50;0.50;;;;;;;;;;5042636;28;20273;-76
2024/04/05 07:08:47;;;;;;;0.30;0.30;;;;;;;;;;5041826;28;20223;-77
2024/04/05 07:11:13;;;;;;;0.30;0.30;;;;;;;;;;5056608;28;20630;-76
2024/04/05 07:13:38;;;;;;;0.30;0.30;;;;;;;;;;5059209;28;20226;-76
2024/04/05 07:16:04;;;;;;;0.30;0.30;;;;;;;;;;5042911;28;20226;-76
2024/04/05 07:18:33;;;;;;;0.30;0.30;;;;;;;;;;5057166;28;20223;-76
2024/04/05 07:21:00;;;;;;;0.30;0.30;;;;;;;;;;5057226;28;20301;-76
2024/04/05 07:23:26;;;;;;;0.67;0.67;;;;;;;;;;5058515;28;20231;-76
2024/04/05 07:25:53;;;;;;;0.30;0.30;;;;;;;;;;5058758;28;20673;-76
2024/04/05 07:28:18;;;;;;;0.30;0.30;;;;;;;;;;5057693;28;20220;-75
2024/04/05 07:30:44;;;;;;;0.30;0.30;;;;;;;;;;5041957;28;20222;-75
2024/04/05 07:33:09;;;;;;;0.40;0.40;;;;;;;;;;5042780;28;20323;-75
2024/04/05 07:35:35;;;;;;;0.30;0.30;;;;;;;;;;5042634;28;20618;-75
2024/04/05 07:38:00;;;;;;;0.67;0.67;;;;;;;;;;5057206;28;20223;-76
2024/04/05 07:40:26;;;;;;;0.40;0.40;;;;;;;;;;5058317;28;20223;-76
2024/04/05 07:42:53;;;;;;;0.30;0.30;;;;;;;;;;5056907;28;20321;-76
2024/04/05 07:45:20;;;;;;;0.30;0.30;;;;;;;;;;5049028;28;20226;-77
2024/04/05 07:47:50;;;;;;;0.30;0.30;;;;;;;;;;5049224;28;20264;-75
2024/04/05 07:50:16;;;;;;;0.57;0.57;;;;;;;;;;5056873;28;20231;-76
2024/04/05 07:52:42;;;;;;;0.30;0.30;;;;;;;;;;5041033;28;20288;-76
2024/04/05 07:55:08;;;;;;;0.30;0.30;;;;;;;;;;5057545;28;20708;-76
2024/04/05 07:57:37;;;;;;;0.40;0.40;;;;;;;;;;5073309;28;20222;-76
2024/04/05 08:00:05;;;;;;;0.30;0.30;;;;;;;;;;5057492;28;20227;-76
2024/04/05 08:02:32;;;;;;;0.30;0.30;;;;;;;;;;5049008;28;20219;-76
2024/04/05 08:04:59;;;;;;;0.60;0.60;;;;;;;;;;5041185;28;20757;-76
2024/04/05 08:07:25;;;;;;;0.40;0.40;;;;;;;;;;5057624;28;20265;-78
2024/04/05 08:09:54;;;;;;;0.40;0.40;;;;;;;;;;5056013;28;20246;-76
2024/04/05 08:12:19;;;;;;;0.30;0.30;;;;;;;;;;5067003;28;20222;-76
2024/04/05 08:14:45;;;;;;;0.40;0.40;;;;;;;;;;5055597;28;20246;-75
2024/04/05 08:17:12;;;;;;;0.30;0.30;;;;;;;;;;5041846;28;20230;-76
2024/04/05 08:19:37;;;;;;;1.07;0.60;;;;;;;;;;5055353;28;20528;-76
2024/04/05 08:22:03;;;;;;;0.32;0.32;;;;;;;;;;5055182;28;20318;-76
2024/04/05 08:24:30;;;;;;;0.40;0.40;;;;;;;;;;5056880;28;20227;-79
2024/04/05 08:26:55;;;;;;;0.30;0.30;;;;;;;;;;5038165;28;20667;-76
2024/04/05 08:29:24;;;;;;;0.30;0.30;;;;;;;;;;5050792;28;20317;-76
2024/04/05 08:31:50;;;;;;;0.30;0.30;;;;;;;;;;5056683;28;20227;-76
2024/04/05 08:34:16;;;;;;;0.45;0.45;;;;;;;;;;5058182;28;20230;-78
2024/04/05 08:36:47;;;;;;;0.30;0.30;;;;;;;;;;5040679;28;20230;-75
2024/04/05 08:39:20;;;;;;;0.30;0.30;;;;;;;;;;5041500;28;20230;-76
2024/04/05 08:41:48;;;;;;;0.30;0.30;;;;;;;;;;5048184;28;20253;-76
2024/04/05 08:44:15;;;;;;;0.30;0.30;;;;;;;;;;5047737;28;20223;-75
2024/04/05 08:46:41;;;;;;;0.30;0.30;;;;;;;;;;5064012;28;20250;-76
2024/04/05 08:49:07;;;;;;;0.52;0.52;;;;;;;;;;5048447;28;20210;-75
2024/04/05 08:51:39;;;;;;;0.30;0.30;;;;;;;;;;5064846;28;20231;-76
2024/04/05 08:54:06;;;;;;;0.30;0.30;;;;;;;;;;5064115;28;20711;-75
2024/04/05 08:56:34;;;;;;;0.35;0.35;;;;;;;;;;5063996;28;20233;-75
2024/04/05 08:59:01;;;;;;;0.30;0.30;;;;;;;;;;5047577;28;20645;-75
2024/04/05 09:01:30;;;;;;;0.55;0.55;;;;;;;;;;5058459;28;20723;-76
2024/04/05 09:03:55;;;;;;;0.45;0.45;;;;;;;;;;5055728;28;20234;-75
2024/04/05 09:06:21;;;;;;;0.40;0.40;;;;;;;;;;5057087;28;20254;-75
2024/04/05 09:08:49;;;;;;;0.40;0.40;;;;;;;;;;5043527;28;20230;-75
2024/04/05 09:11:25;;;;;;;0.30;0.30;;;;;;;;;;5051333;28;20336;-75
2024/04/05 09:13:58;;;;;;;0.40;0.40;;;;;;;;;;5051860;28;20219;-75
2024/04/05 09:16:27;;;;;;;0.30;0.30;;;;;;;;;;5060345;28;20226;-75
2024/04/05 09:19:08;;;;;;;0.55;0.40;;;;;;;;;;5044125;28;20222;-75
2024/04/05 09:21:34;;;;;;;0.30;0.30;;;;;;;;;;5051615;28;20222;-75
2024/04/05 09:24:03;;;;;;;0.30;0.30;;;;;;;;;;5077082;28;20726;-75
2024/04/05 09:26:28;;;;;;;0.30;0.30;;;;;;;;;;5043888;28;20219;-75
2024/04/05 09:28:58;;;;;;;0.30;0.30;;;;;;;;;;5061596;28;20223;-77
2024/04/05 09:31:25;;;;;;;0.50;0.50;;;;;;;;;;5059130;28;20696;-75
2024/04/05 09:33:50;;;;;;;0.60;0.60;;;;;;;;;;5050984;28;20592;-75
2024/04/05 09:36:17;;;;;;;0.30;0.30;;;;;;;;;;5060263;28;20226;-77
2024/04/05 09:38:49;;;;;;;0.82;0.82;;;;;;;;;;5058380;28;20234;-75
2024/04/05 09:41:15;;;;;;;0.40;0.40;;;;;;;;;;5051059;28;20223;-75
2024/04/05 09:43:42;;;;;;;0.30;0.30;;;;;;;;;;5042297;28;20215;-76
2024/04/05 09:46:11;;;;;;;0.30;0.30;;;;;;;;;;5059163;28;20219;-75
2024/04/05 09:48:36;;;;;;;0.40;0.40;;;;;;;;;;5050433;28;20226;-75
2024/04/05 09:51:13;;;;;;;0.65;0.65;;;;;;;;;;5057687;28;20231;-75
2024/04/05 09:53:45;;;;;;;0.57;0.57;;;;;;;;;;5061837;28;20225;-75
2024/04/05 09:56:16;;;;;;;0.50;0.50;;;;;;;;;;5058105;28;20220;-75
2024/04/05 09:58:42;;;;;;;0.40;0.40;;;;;;;;;;5056153;28;20896;-75
2024/04/05 10:01:08;;;;;;;0.90;0.60;;;;;;;;;;5056852;28;20230;-75
2024/04/05 10:03:35;;;;;;;0.38;0.38;;;;;;;;;;5057485;28;20220;-75
2024/04/05 10:06:15;;;;;;;0.40;0.40;;;;;;;;;;5059898;28;20215;-76
2024/04/05 10:08:42;;;;;;;0.50;0.50;;;;;;;;;;5037361;28;20219;-76
2024/04/05 10:11:15;;;;;;;0.30;0.30;;;;;;;;;;5051597;28;20230;-77
2024/04/05 10:13:41;;;;;;;0.85;0.47;;;;;;;;;;5043057;28;20211;-76
2024/04/05 10:16:11;;;;;;;0.30;0.30;;;;;;;;;;5049277;28;20692;-77
2024/04/05 10:18:39;;;;;;;0.30;0.30;;;;;;;;;;5058232;28;20249;-77
2024/04/05 10:21:10;;;;;;;0.40;0.40;;;;;;;;;;5058726;28;20743;-76
2024/04/05 10:23:36;;;;;;;0.63;0.63;;;;;;;;;;5058295;28;20740;-77
2024/04/05 10:26:03;;;;;;;0.40;0.40;;;;;;;;;;5067534;28;20223;-75
2024/04/05 10:28:29;;;;;;;0.55;0.55;;;;;;;;;;5060263;28;20223;-76
2024/04/05 10:30:55;;;;;;;0.30;0.30;;;;;;;;;;5050490;28;20235;-76
2024/04/05 10:33:22;;;;;;;1.65;0.70;;;;;;;;;;5067066;28;20222;-76
2024/04/05 10:35:56;;;;;;;0.45;0.45;;;;;;;;;;5043237;28;20219;-76
2024/04/05 10:38:22;;;;;;;0.30;0.30;;;;;;;;;;5042914;28;20227;-75
2024/04/05 10:40:57;;;;;;;0.50;0.50;;;;;;;;;;5057928;28;20231;-75
2024/04/05 10:43:23;;;;;;;0.40;0.40;;;;;;;;;;5066493;28;20235;-75
2024/04/05 10:45:53;;;;;;;0.40;0.40;;;;;;;;;;5049038;28;20253;-76
2024/04/05 10:48:19;;;;;;;0.52;0.52;;;;;;;;;;5048452;28;20224;-76
2024/04/05 10:50:47;;;;;;;0.47;0.47;;;;;;;;;;5058781;28;20250;-76
2024/04/05 10:53:16;;;;;;;1.02;0.95;;;;;;;;;;5043731;28;20493;-77
2024/04/05 10:55:43;;;;;;;0.55;0.55;;;;;;;;;;5066227;28;20222;-76
2024/04/05 10:58:14;;;;;;;0.30;0.30;;;;;;;;;;5059580;28;20223;-76
2024/04/05 11:00:40;;;;;;;0.30;0.30;;;;;;;;;;5059047;28;20230;-76
2024/04/05 11:03:10;;;;;;;0.70;0.70;;;;;;;;;;5059021;28;20704;-77
2024/04/05 11:05:36;;;;;;;0.40;0.40;;;;;;;;;;5049990;28;20227;-78
2024/04/05 11:08:04;;;;;;;0.32;0.32;;;;;;;;;;5075009;28;20738;-77
2024/04/05 11:10:31;;;;;;;0.30;0.30;;;;;;;;;;5057570;28;20219;-76
2024/04/05 11:12:58;;;;;;;0.80;0.80;;;;;;;;;;5049040;28;20731;-76
2024/04/05 11:15:23;;;;;;;0.40;0.40;;;;;;;;;;5057488;28;20227;-74
2024/04/05 11:17:59;;;;;;;1.23;1.02;;;;;;;;;;5058335;28;20310;-76
2024/04/05 11:20:27;;;;;;;0.40;0.40;;;;;;;;;;5058287;28;20231;-74
2024/04/05 11:23:04;;;;;;;0.40;0.40;;;;;;;;;;5058990;28;20223;-74
2024/04/05 11:25:31;;;;;;;0.40;0.40;;;;;;;;;;5065214;28;20589;-73
2024/04/05 11:27:57;;;;;;;1.17;0.68;;;;;;;;;;5048080;28;20220;-73
2024/04/05 11:30:24;;;;;;;0.30;0.30;;;;;;;;;;5048175;28;20227;-72
2024/04/05 11:32:51;;;;;;;0.50;0.50;;;;;;;;;;5058331;28;20233;-73
2024/04/05 11:35:16;;;;;;;0.30;0.30;;;;;;;;;;5056318;28;20259;-75
2024/04/05 11:37:46;;;;;;;0.45;0.38;;;;;;;;;;5066535;28;20219;-74
2024/04/05 11:40:13;;;;;;;0.30;0.30;;;;;;;;;;5080961;28;20207;-74
2024/04/05 11:42:40;;;;;;;0.30;0.30;;;;;;;;;;5058203;28;20233;-73
2024/04/05 11:45:06;;;;;;;0.35;0.35;;;;;;;;;;5044480;28;20223;-73
2024/04/05 11:47:33;;;;;;;0.47;0.47;;;;;;;;;;5059176;28;20724;-73
2024/04/05 11:50:00;;;;;;;0.40;0.40;;;;;;;;;;5043127;28;20234;-72
2024/04/05 11:52:27;;;;;;;0.40;0.40;;;;;;;;;;5064445;28;20231;-75
2024/04/05 11:54:53;;;;;;;0.30;0.30;;;;;;;;;;5060901;28;20223;-73
2024/04/05 11:57:19;;;;;;;0.40;0.40;;;;;;;;;;5041825;28;20318;-73
2024/04/05 11:59:51;;;;;;;0.47;0.47;;;;;;;;;;5041101;28;20522;-74
2024/04/05 12:02:41;;;;;;;0.30;0.30;;;;;;;;;;5049448;28;20231;-74
2024/04/05 12:05:10;;;;;;;0.35;0.35;;;;;;;;;;5066364;28;20231;-74
2024/04/05 12:07:35;;;;;;;0.38;0.38;;;;;;;;;;5048694;28;20747;-73
2024/04/05 12:10:01;;;;;;;0.50;0.50;;;;;;;;;;5055976;28;20227;-73
2024/04/05 12:12:28;;;;;;;0.30;0.30;;;;;;;;;;5055785;28;20238;-74
2024/04/05 12:14:55;;;;;;;0.32;0.32;;;;;;;;;;5072674;28;20223;-74
2024/04/05 12:17:22;;;;;;;0.30;0.30;;;;;;;;;;5056093;28;20231;-74
2024/04/05 12:19:50;;;;;;;0.40;0.40;;;;;;;;;;5056613;28;20230;-74
2024/04/05 12:22:19;;;;;;;0.30;0.30;;;;;;;;;;5049335;28;20227;-73
2024/04/05 12:24:51;;;;;;;0.30;0.30;;;;;;;;;;5056107;28;20637;-74
2024/04/05 12:27:17;;;;;;;0.50;0.50;;;;;;;;;;5065000;28;20708;-74
2024/04/05 12:29:46;;;;;;;0.30;0.30;;;;;;;;;;5057035;28;20242;-73
2024/04/05 12:32:11;;;;;;;0.57;0.57;;;;;;;;;;5047706;28;20242;-74
2024/04/05 12:34:36;;;;;;;0.40;0.40;;;;;;;;;;5041071;28;20231;-74
2024/04/05 12:37:08;;;;;;;0.30;0.30;;;;;;;;;;5071467;28;20227;-73
2024/04/05 12:39:38;;;;;;;2.17;0.93;;;;;;;;;;5056789;28;20254;-73
2024/04/05 12:42:04;;;;;;;0.38;0.38;;;;;;;;;;5065243;28;20316;-73
2024/04/05 12:44:30;;;;;;;0.40;0.40;;;;;;;;;;5060425;28;20692;-74
2024/04/05 12:46:56;;;;;;;0.30;0.30;;;;;;;;;;5060506;28;20601;-74
2024/04/05 12:49:22;;;;;;;0.60;0.60;;;;;;;;;;5061466;28;20231;-74
2024/04/05 12:51:51;;;;;;;0.30;0.30;;;;;;;;;;5060667;28;20263;-74
2024/04/05 12:54:17;;;;;;;0.40;0.40;;;;;;;;;;5051343;28;20222;-74
2024/04/05 12:56:43;;;;;;;0.40;0.40;;;;;;;;;;5051753;28;20250;-74
2024/04/05 12:59:09;;;;;;;0.40;0.40;;;;;;;;;;5060014;28;20603;-74
2024/04/05 13:01:34;;;;;;;0.40;0.40;;;;;;;;;;5062744;28;20223;-73
2024/04/05 13:04:00;;;;;;;0.40;0.40;;;;;;;;;;5046087;28;20306;-74
2024/04/05 13:06:25;;;;;;;0.30;0.30;;;;;;;;;;5060319;28;20227;-74
2024/04/05 13:08:52;;;;;;;0.40;0.40;;;;;;;;;;5052631;28;20223;-73
2024/04/05 13:11:20;;;;;;;0.30;0.30;;;;;;;;;;5068671;28;20230;-75
2024/04/05 13:13:46;;;;;;;0.40;0.40;;;;;;;;;;5060833;28;20231;-73
2024/04/05 13:16:12;;;;;;;0.38;0.38;;;;;;;;;;5077760;28;20667;-74
2024/04/05 13:18:39;;;;;;;1.30;0.50;;;;;;;;;;5059032;28;20219;-74
2024/04/05 13:21:07;;;;;;;0.47;0.47;;;;;;;;;;5051789;28;20227;-74
2024/04/05 13:23:36;;;;;;;0.60;0.60;;;;;;;;;;5060110;28;20227;-74
2024/04/05 13:26:16;;;;;;;0.30;0.30;;;;;;;;;;5061076;28;20227;-74
2024/04/05 13:28:55;;;;;;;0.40;0.40;;;;;;;;;;5066727;28;20218;-74
2024/04/05 13:31:23;;;;;;;0.85;0.85;;;;;;;;;;5060122;28;20226;-75
2024/04/05 13:33:49;;;;;;;0.40;0.40;;;;;;;;;;5057945;28;20222;-75
2024/04/05 13:36:16;;;;;;;0.30;0.30;;;;;;;;;;5052165;28;20227;-75
2024/04/05 13:38:42;;;;;;;0.30;0.30;;;;;;;;;;5053839;28;20284;-75
2024/04/05 13:41:08;;;;;;;0.50;0.50;;;;;;;;;;5062561;28;20238;-74
2024/04/05 13:43:35;;;;;;;0.50;0.50;;;;;;;;;;5060538;28;20827;-74
2024/04/05 13:46:16;;;;;;;0.40;0.40;;;;;;;;;;5064697;28;20219;-74
2024/04/05 13:48:43;;;;;;;0.30;0.30;;;;;;;;;;5058252;28;20223;-74
2024/04/05 13:51:09;;;;;;;0.40;0.40;;;;;;;;;;5069888;28;20223;-74
2024/04/05 13:53:36;;;;;;;0.30;0.30;;;;;;;;;;5059891;28;20258;-73
2024/04/05 13:56:03;;;;;;;0.60;0.55;;;;;;;;;;5041562;28;20663;-74
2024/04/05 13:58:29;;;;;;;0.45;0.45;;;;;;;;;;5056012;28;20280;-74
2024/04/05 14:00:55;;;;;;;0.60;0.60;;;;;;;;;;5059802;28;20223;-74
2024/04/05 14:03:22;;;;;;;0.30;0.30;;;;;;;;;;5058828;28;20226;-74
2024/04/05 14:05:50;;;;;;;0.45;0.45;;;;;;;;;;5058254;28;20222;-74
2024/04/05 14:08:18;;;;;;;4.40;1.20;;;;;;;;;;5051360;28;20218;-74
2024/04/05 14:10:44;;;;;;;0.30;0.30;;;;;;;;;;5060795;28;20223;-74
2024/04/05 14:13:10;;;;;;;1.10;1.10;;;;;;;;;;5050547;28;20222;-74
2024/04/05 14:15:35;;;;;;;0.40;0.40;;;;;;;;;;5058987;28;20606;-74
2024/04/05 14:18:08;;;;;;;0.50;0.50;;;;;;;;;;5044139;28;20230;-74
2024/04/05 14:20:40;;;;;;;0.38;0.38;;;;;;;;;;5042801;28;20238;-72
2024/04/05 14:23:06;;;;;;;0.73;0.73;;;;;;;;;;5084893;28;20239;-74
2024/04/05 14:25:33;;;;;;;1.10;0.45;;;;;;;;;;5078731;28;20244;-73
2024/04/05 14:27:58;;;;;;;0.65;0.65;;;;;;;;;;5075173;28;20219;-76
2024/04/05 14:31:00;;;;;;;0.30;0.30;;;;;;;;;;5074564;28;20284;-73
2024/04/05 14:33:27;;;;;;;0.30;0.30;;;;;;;;;;5061588;28;20283;-75
2024/04/05 14:36:00;;;;;;;0.30;0.30;;;;;;;;;;5092582;28;20219;-74
2024/04/05 14:38:28;;;;;;;0.40;0.40;;;;;;;;;;5088619;28;20293;-74
2024/04/05 14:41:05;;;;;;;0.32;0.32;;;;;;;;;;5097781;28;20240;-74
2024/04/05 14:43:31;;;;;;;0.40;0.40;;;;;;;;;;5052043;28;20226;-73
2024/04/05 14:46:00;;;;;;;0.50;0.50;;;;;;;;;;5059089;28;20223;-73